Página principal
METAR-TAF:

METAR-TAF

Aeroportos :

Plataforma petrolífera

Troll A, Noruega

latitude: 60-38-42N, longitude: 3-43-29E, altura: 20 m

Observação actual do tempo

O boletim foi feito há 16 minutos, às 04:50 UTC
Vento 8 kt de sul, variando entre su-sudeste e oes-sudoeste
Temperatura 5°C
Humidade 81%
Pressão 995 hPa
Visibilidade 10 km ou mais

METAR: ENQA 250450Z AUTO 19008KT 160V240 9999 SCT027/// BKN160/// 05/02 Q0995 W04/S4

Hora: 06:06 (05:06 UTC)


TAF: em falta

Observações e previsões do tempo de mais de 4000 aeroportos (mensagens METAR e TAF).

As estações disponíveis são os pontos amarelos e vermelhos sobre o mapa.

Mova o rato sobre o mapa para ver o nome da estação.

Depois clique no ponto para visualizar as observações e previsões meteorológicas.

Para alterar o mapa : clique nos botões verdes com uma cruz preta para aumentar o zoom; no botão verde com uma pitada de zoom; ou nas setas verdes para mapas adjacentes.


METAR-TAF: